createdAt,value
2022-08-01T00:00:24.038Z,1011.26
2022-08-01T00:01:24.054Z,1011.26
2022-08-01T00:02:24.048Z,1011.27
2022-08-01T00:03:24.018Z,1011.30
2022-08-01T00:04:24.953Z,1011.30
2022-08-01T00:05:24.029Z,1011.29
2022-08-01T00:06:24.042Z,1011.31
2022-08-01T00:07:23.960Z,1011.35
2022-08-01T00:08:23.299Z,1011.32
2022-08-01T00:09:25.701Z,1011.34
2022-08-01T00:10:24.250Z,1011.33
2022-08-01T00:11:23.633Z,1011.30
2022-08-01T00:12:23.281Z,1011.36
2022-08-01T00:13:23.211Z,1011.35
2022-08-01T00:14:23.223Z,1011.37
2022-08-01T00:15:24.962Z,1011.37
2022-08-01T00:16:23.907Z,1011.37
2022-08-01T00:17:23.374Z,1011.38
2022-08-01T00:18:24.309Z,1011.41
2022-08-01T00:19:23.203Z,1011.41
2022-08-01T00:20:23.291Z,1011.41
2022-08-01T00:21:23.403Z,1011.42
2022-08-01T00:22:23.124Z,1011.39
2022-08-01T00:23:23.802Z,1011.41
2022-08-01T00:24:23.137Z,1011.38
2022-08-01T00:25:34.310Z,1011.38
2022-08-01T00:26:24.330Z,1011.35
2022-08-01T00:27:23.817Z,1011.37
2022-08-01T00:28:23.756Z,1011.38
2022-08-01T00:30:11.765Z,1011.40
2022-08-01T00:30:24.307Z,1011.41
2022-08-01T00:31:25.329Z,1011.42
2022-08-01T00:32:25.777Z,1011.43
2022-08-01T00:33:23.675Z,1011.41
2022-08-01T00:34:23.051Z,1011.40
2022-08-01T00:35:23.677Z,1011.39
2022-08-01T00:36:23.017Z,1011.42
2022-08-01T00:37:23.974Z,1011.44
2022-08-01T00:38:22.991Z,1011.44
2022-08-01T00:39:23.820Z,1011.41
2022-08-01T00:40:23.125Z,1011.48
2022-08-01T00:41:23.732Z,1011.48
2022-08-01T00:42:23.120Z,1011.43
2022-08-01T00:43:23.141Z,1011.49
2022-08-01T00:44:23.171Z,1011.44
2022-08-01T00:45:22.880Z,1011.42
2022-08-01T00:46:23.393Z,1011.43
2022-08-01T00:47:24.696Z,1011.46
2022-08-01T00:48:22.911Z,1011.39
2022-08-01T00:49:22.892Z,1011.42
2022-08-01T00:50:22.883Z,1011.42
2022-08-01T00:51:23.641Z,1011.43
2022-08-01T00:52:23.533Z,1011.42
2022-08-01T00:53:22.806Z,1011.40
2022-08-01T00:54:23.445Z,1011.45
2022-08-01T00:55:22.813Z,1011.46
2022-08-01T00:56:22.826Z,1011.41
2022-08-01T00:58:02.315Z,1011.44
2022-08-01T00:58:24.699Z,1011.38
2022-08-01T00:59:23.404Z,1011.40
2022-08-01T01:00:27.195Z,1011.37
2022-08-01T01:01:24.257Z,1011.40
2022-08-01T01:02:24.683Z,1011.46
2022-08-01T01:03:26.333Z,1011.44
2022-08-01T01:04:23.659Z,1011.44
2022-08-01T01:05:22.676Z,1011.45
2022-08-01T01:06:23.327Z,1011.46
2022-08-01T01:07:22.672Z,1011.45
2022-08-01T01:08:23.370Z,1011.43
2022-08-01T01:09:22.639Z,1011.45
2022-08-01T01:10:22.638Z,1011.43
2022-08-01T01:11:23.279Z,1011.43
2022-08-01T01:12:23.259Z,1011.43
2022-08-01T01:13:22.600Z,1011.45
2022-08-01T01:14:22.583Z,1011.46
2022-08-01T01:15:22.583Z,1011.46
2022-08-01T01:16:22.544Z,1011.48
2022-08-01T01:17:49.700Z,1011.45
2022-08-01T01:18:24.458Z,1011.46
2022-08-01T01:19:22.501Z,1011.45
2022-08-01T01:20:22.637Z,1011.44
2022-08-01T01:21:22.606Z,1011.49
2022-08-01T01:22:22.472Z,1011.46
2022-08-01T01:23:22.490Z,1011.47
2022-08-01T01:24:23.123Z,1011.45
2022-08-01T01:25:23.122Z,1011.45
2022-08-01T01:26:23.456Z,1011.50
2022-08-01T01:27:22.414Z,1011.49
2022-08-01T01:28:22.406Z,1011.49
2022-08-01T01:29:22.384Z,1011.50
2022-08-01T01:30:22.436Z,1011.46
2022-08-01T01:31:23.075Z,1011.48
2022-08-01T01:32:28.637Z,1011.47
2022-08-01T01:33:24.286Z,1011.47
2022-08-01T01:34:22.366Z,1011.45
2022-08-01T01:35:23.008Z,1011.50
2022-08-01T01:36:22.988Z,1011.56
2022-08-01T01:37:22.988Z,1011.55
2022-08-01T01:38:22.359Z,1011.53
2022-08-01T01:39:22.967Z,1011.52
2022-08-01T01:40:22.277Z,1011.54
2022-08-01T01:41:23.689Z,1011.56
2022-08-01T01:42:22.929Z,1011.54
2022-08-01T01:43:22.249Z,1011.54
2022-08-01T01:44:23.284Z,1011.55
2022-08-01T01:45:22.247Z,1011.57
2022-08-01T01:46:22.890Z,1011.49
2022-08-01T01:47:23.016Z,1011.53
2022-08-01T01:48:22.186Z,1011.56
2022-08-01T01:49:22.883Z,1011.56
2022-08-01T01:50:22.273Z,1011.55
2022-08-01T01:51:22.831Z,1011.58
2022-08-01T01:52:22.175Z,1011.57
2022-08-01T01:53:22.173Z,1011.56
2022-08-01T01:54:22.177Z,1011.58
2022-08-01T01:55:22.121Z,1011.57
2022-08-01T01:56:22.198Z,1011.55
2022-08-01T01:57:22.085Z,1011.58
2022-08-01T01:58:22.754Z,1011.56
2022-08-01T01:59:25.695Z,1011.56
2022-08-01T02:00:22.053Z,1011.58
2022-08-01T02:01:58.403Z,1011.53
2022-08-01T02:02:24.533Z,1011.53
2022-08-01T02:03:22.029Z,1011.53
2022-08-01T02:04:22.689Z,1011.56
2022-08-01T02:05:22.678Z,1011.55
2022-08-01T02:06:21.978Z,1011.55
2022-08-01T02:07:21.982Z,1011.50
2022-08-01T02:08:22.007Z,1011.52
2022-08-01T02:09:22.637Z,1011.52
2022-08-01T02:10:21.977Z,1011.50
2022-08-01T02:11:22.929Z,1011.48
2022-08-01T02:12:21.921Z,1011.46
2022-08-01T02:13:21.948Z,1011.48
2022-08-01T02:14:21.959Z,1011.47
2022-08-01T02:15:21.932Z,1011.49
2022-08-01T02:16:22.562Z,1011.52
2022-08-01T02:17:22.554Z,1011.51
2022-08-01T02:18:23.922Z,1011.53
2022-08-01T02:19:22.521Z,1011.53
2022-08-01T02:20:21.856Z,1011.51
2022-08-01T02:21:21.843Z,1011.55
2022-08-01T02:22:22.499Z,1011.53
2022-08-01T02:23:21.825Z,1011.56
2022-08-01T02:24:21.785Z,1011.49
2022-08-01T02:25:22.817Z,1011.51
2022-08-01T02:26:22.445Z,1011.54
2022-08-01T02:27:21.804Z,1011.54
2022-08-01T02:28:22.426Z,1011.58
2022-08-01T02:29:21.734Z,1011.55
2022-08-01T02:30:21.864Z,1011.56
2022-08-01T02:31:22.397Z,1011.55
2022-08-01T02:32:21.718Z,1011.56
2022-08-01T02:33:22.390Z,1011.54
2022-08-01T02:34:22.366Z,1011.55
2022-08-01T02:35:22.361Z,1011.55
2022-08-01T02:36:30.853Z,1011.55
2022-08-01T02:37:22.696Z,1011.56
2022-08-01T02:38:22.334Z,1011.61
2022-08-01T02:39:22.317Z,1011.62
2022-08-01T02:40:22.298Z,1011.64
2022-08-01T02:41:21.634Z,1011.63
2022-08-01T02:42:21.679Z,1011.61
2022-08-01T02:43:22.279Z,1011.64
2022-08-01T02:44:22.262Z,1011.63
2022-08-01T02:45:21.571Z,1011.64
2022-08-01T02:46:21.540Z,1011.61
2022-08-01T02:47:21.560Z,1011.63
2022-08-01T02:48:21.569Z,1011.62
2022-08-01T02:49:21.610Z,1011.69
2022-08-01T02:50:22.199Z,1011.67
2022-08-01T02:51:22.183Z,1011.66
2022-08-01T02:52:22.172Z,1011.66
2022-08-01T02:53:22.172Z,1011.67
2022-08-01T02:54:22.500Z,1011.66
2022-08-01T02:55:22.153Z,1011.70
2022-08-01T02:56:22.134Z,1011.66
2022-08-01T02:57:22.149Z,1011.69
2022-08-01T02:58:21.426Z,1011.69
2022-08-01T02:59:22.589Z,1011.70
2022-08-01T03:00:23.693Z,1011.66
2022-08-01T03:01:22.123Z,1011.67
2022-08-01T03:02:22.076Z,1011.67
2022-08-01T03:03:22.067Z,1011.62
2022-08-01T03:04:25.744Z,1011.66
2022-08-01T03:05:24.603Z,1011.62
2022-08-01T03:06:21.421Z,1011.67
2022-08-01T03:07:21.317Z,1011.67
2022-08-01T03:08:21.318Z,1011.68
2022-08-01T03:09:21.997Z,1011.69
2022-08-01T03:10:21.779Z,1011.72
2022-08-01T03:11:21.978Z,1011.71
2022-08-01T03:12:22.068Z,1011.71
2022-08-01T03:13:22.476Z,1011.69
2022-08-01T03:14:21.939Z,1011.68
2022-08-01T03:15:21.264Z,1011.68
2022-08-01T03:16:21.921Z,1011.73
2022-08-01T03:17:21.300Z,1011.71
2022-08-01T03:18:21.911Z,1011.75
2022-08-01T03:19:21.231Z,1011.74
2022-08-01T03:20:21.876Z,1011.73
2022-08-01T03:21:21.870Z,1011.66
2022-08-01T03:22:21.174Z,1011.68
2022-08-01T03:23:21.303Z,1011.67
2022-08-01T03:24:21.832Z,1011.71
2022-08-01T03:25:21.828Z,1011.70
2022-08-01T03:26:21.148Z,1011.68
2022-08-01T03:27:21.251Z,1011.70
2022-08-01T03:28:21.124Z,1011.70
2022-08-01T03:29:21.105Z,1011.68
2022-08-01T03:30:21.094Z,1011.71
2022-08-01T03:31:21.756Z,1011.71
2022-08-01T03:32:21.750Z,1011.72
2022-08-01T03:33:21.071Z,1011.74
2022-08-01T03:34:21.739Z,1011.70
2022-08-01T03:35:21.717Z,1011.75
2022-08-01T03:36:21.708Z,1011.71
2022-08-01T03:37:21.689Z,1011.69
2022-08-01T03:38:21.033Z,1011.77
2022-08-01T03:39:21.020Z,1011.76
2022-08-01T03:40:21.048Z,1011.80
2022-08-01T03:41:21.657Z,1011.77
2022-08-01T03:42:21.653Z,1011.72
2022-08-01T03:43:21.630Z,1011.71
2022-08-01T03:44:21.628Z,1011.72
2022-08-01T03:45:21.610Z,1011.76
2022-08-01T03:46:21.626Z,1011.75
2022-08-01T03:47:21.591Z,1011.77
2022-08-01T03:48:21.580Z,1011.75
2022-08-01T03:49:21.037Z,1011.79
2022-08-01T03:50:20.913Z,1011.79
2022-08-01T03:51:20.858Z,1011.77
2022-08-01T03:52:21.572Z,1011.77
2022-08-01T03:53:21.522Z,1011.79
2022-08-01T03:54:22.552Z,1011.79
2022-08-01T03:55:22.596Z,1011.76
2022-08-01T03:56:21.032Z,1011.80
2022-08-01T03:57:35.666Z,1011.83
2022-08-01T03:58:21.862Z,1011.79
2022-08-01T03:59:20.776Z,1011.78
2022-08-01T04:00:20.876Z,1011.78
2022-08-01T04:01:20.857Z,1011.80
2022-08-01T04:02:22.915Z,1011.81
2022-08-01T04:03:23.684Z,1011.79
2022-08-01T04:04:20.775Z,1011.82
2022-08-01T04:05:20.726Z,1011.86
2022-08-01T04:06:20.687Z,1011.83
2022-08-01T04:07:22.778Z,1011.85
2022-08-01T04:08:21.363Z,1011.85
2022-08-01T04:09:20.682Z,1011.88
2022-08-01T04:10:20.719Z,1011.86
2022-08-01T04:11:21.325Z,1011.84
2022-08-01T04:12:20.629Z,1011.90
2022-08-01T04:13:20.649Z,1011.89
2022-08-01T04:14:20.638Z,1011.93
2022-08-01T04:15:20.651Z,1011.90
2022-08-01T04:16:21.269Z,1011.90
2022-08-01T04:17:20.592Z,1011.92
2022-08-01T04:18:21.250Z,1011.90
2022-08-01T04:19:20.580Z,1011.89
2022-08-01T04:20:21.231Z,1011.89
2022-08-01T04:21:21.223Z,1011.89
2022-08-01T04:22:21.203Z,1011.86
2022-08-01T04:23:21.191Z,1011.94
2022-08-01T04:24:21.190Z,1011.89
2022-08-01T04:25:20.532Z,1011.92
2022-08-01T04:26:21.162Z,1011.89
2022-08-01T04:27:49.091Z,1011.86
2022-08-01T04:28:22.141Z,1011.88
2022-08-01T04:29:21.127Z,1011.94
2022-08-01T04:30:21.207Z,1011.90
2022-08-01T04:31:20.457Z,1011.93
2022-08-01T04:32:20.454Z,1011.97
2022-08-01T04:33:21.086Z,1011.96
2022-08-01T04:34:20.482Z,1011.97
2022-08-01T04:35:22.824Z,1011.97
2022-08-01T04:36:22.374Z,1011.99
2022-08-01T04:37:21.048Z,1011.99
2022-08-01T04:38:21.037Z,1012.00
2022-08-01T04:39:20.398Z,1012.02
2022-08-01T04:40:20.468Z,1012.03
2022-08-01T04:41:20.328Z,1012.03
2022-08-01T04:42:26.007Z,1012.01
2022-08-01T04:43:21.978Z,1012.05
2022-08-01T04:44:20.347Z,1012.02
2022-08-01T04:45:20.308Z,1012.04
2022-08-01T04:46:20.959Z,1012.04
2022-08-01T04:47:20.300Z,1012.06
2022-08-01T04:48:20.276Z,1012.09
2022-08-01T04:49:22.217Z,1012.12
2022-08-01T04:50:20.902Z,1012.10
2022-08-01T04:51:20.894Z,1012.14
2022-08-01T04:52:24.747Z,1012.16
2022-08-01T04:53:20.884Z,1012.16
2022-08-01T04:54:20.863Z,1012.17
2022-08-01T04:55:20.852Z,1012.13
2022-08-01T04:56:20.172Z,1012.20
2022-08-01T04:57:20.830Z,1012.22
2022-08-01T04:58:20.810Z,1012.21
2022-08-01T04:59:20.449Z,1012.26
2022-08-01T05:00:20.145Z,1012.27
2022-08-01T05:01:20.215Z,1012.30
2022-08-01T05:02:20.783Z,1012.26
2022-08-01T05:03:20.762Z,1012.25
2022-08-01T05:04:20.274Z,1012.26
2022-08-01T05:05:20.074Z,1012.29
2022-08-01T05:06:20.082Z,1012.28
2022-08-01T05:07:20.749Z,1012.29
2022-08-01T05:08:20.715Z,1012.29
2022-08-01T05:09:20.707Z,1012.28
2022-08-01T05:10:20.747Z,1012.32
2022-08-01T05:11:22.542Z,1012.31
2022-08-01T05:12:21.966Z,1012.29
2022-08-01T05:13:20.659Z,1012.29
2022-08-01T05:14:20.648Z,1012.30
2022-08-01T05:15:20.641Z,1012.30
2022-08-01T05:16:20.047Z,1012.37
2022-08-01T05:17:20.007Z,1012.34
2022-08-01T05:18:27.785Z,1012.34
2022-08-01T05:19:21.590Z,1012.33
2022-08-01T05:20:19.912Z,1012.37
2022-08-01T05:21:19.905Z,1012.39
2022-08-01T05:22:20.573Z,1012.35
2022-08-01T05:23:36.481Z,1012.37
2022-08-01T05:24:20.881Z,1012.34
2022-08-01T05:25:33.834Z,1012.35
2022-08-01T05:26:21.773Z,1012.34
2022-08-01T05:27:20.512Z,1012.40
2022-08-01T05:28:20.490Z,1012.38
2022-08-01T05:29:20.495Z,1012.39
2022-08-01T05:30:20.499Z,1012.41
2022-08-01T05:31:20.474Z,1012.38
2022-08-01T05:32:19.807Z,1012.37
2022-08-01T05:33:20.494Z,1012.38
2022-08-01T05:34:21.364Z,1012.39
2022-08-01T05:35:20.437Z,1012.39
2022-08-01T05:36:19.835Z,1012.41
2022-08-01T05:37:21.635Z,1012.46
2022-08-01T05:38:19.728Z,1012.45
2022-08-01T05:39:20.387Z,1012.47
2022-08-01T05:40:20.460Z,1012.46
2022-08-01T05:41:19.708Z,1012.50
2022-08-01T05:42:20.355Z,1012.50
2022-08-01T05:43:19.692Z,1012.53
2022-08-01T05:44:19.679Z,1012.52
2022-08-01T05:45:21.127Z,1012.50
2022-08-01T05:46:20.323Z,1012.53
2022-08-01T05:47:20.303Z,1012.51
2022-08-01T05:48:20.287Z,1012.49
2022-08-01T05:49:20.316Z,1012.48
2022-08-01T05:50:20.271Z,1012.47
2022-08-01T05:51:20.261Z,1012.48
2022-08-01T05:52:20.251Z,1012.49
2022-08-01T05:53:20.266Z,1012.51
2022-08-01T05:54:20.230Z,1012.55
2022-08-01T05:55:19.530Z,1012.53
2022-08-01T05:56:20.972Z,1012.58
2022-08-01T05:57:19.593Z,1012.51
2022-08-01T05:58:20.596Z,1012.52
2022-08-01T05:59:19.501Z,1012.55
2022-08-01T06:00:19.533Z,1012.53
2022-08-01T06:01:19.494Z,1012.49
2022-08-01T06:02:19.493Z,1012.54
2022-08-01T06:03:19.459Z,1012.51
2022-08-01T06:04:19.539Z,1012.53
2022-08-01T06:05:19.472Z,1012.56
2022-08-01T06:06:20.115Z,1012.58
2022-08-01T06:07:20.414Z,1012.59
2022-08-01T06:08:20.076Z,1012.60
2022-08-01T06:09:20.066Z,1012.65
2022-08-01T06:10:20.058Z,1012.63
2022-08-01T06:11:19.375Z,1012.64
2022-08-01T06:12:20.038Z,1012.65
2022-08-01T06:13:19.367Z,1012.60
2022-08-01T06:14:20.016Z,1012.61
2022-08-01T06:15:19.337Z,1012.59
2022-08-01T06:16:19.356Z,1012.67
2022-08-01T06:17:19.988Z,1012.68
2022-08-01T06:18:21.645Z,1012.70
2022-08-01T06:19:19.292Z,1012.68
2022-08-01T06:20:19.282Z,1012.69
2022-08-01T06:21:19.252Z,1012.65
2022-08-01T06:22:19.292Z,1012.67
2022-08-01T06:23:32.318Z,1012.71
2022-08-01T06:24:22.189Z,1012.73
2022-08-01T06:25:21.185Z,1012.72
2022-08-01T06:26:19.222Z,1012.75
2022-08-01T06:27:22.326Z,1012.70
2022-08-01T06:28:19.861Z,1012.72
2022-08-01T06:29:21.527Z,1012.72
2022-08-01T06:30:21.218Z,1012.74
2022-08-01T06:31:19.155Z,1012.75
2022-08-01T06:32:26.956Z,1012.75
2022-08-01T06:33:20.183Z,1012.78
2022-08-01T06:34:19.802Z,1012.82
2022-08-01T06:35:19.787Z,1012.80
2022-08-01T06:36:19.774Z,1012.86
2022-08-01T06:37:19.087Z,1012.85
2022-08-01T06:38:19.771Z,1012.83
2022-08-01T06:39:19.204Z,1012.80
2022-08-01T06:40:20.826Z,1012.80
2022-08-01T06:41:19.725Z,1012.87
2022-08-01T06:42:19.139Z,1012.83
2022-08-01T06:43:19.706Z,1012.87
2022-08-01T06:44:19.016Z,1012.86
2022-08-01T06:45:19.666Z,1012.88
2022-08-01T06:46:19.910Z,1012.88
2022-08-01T06:47:18.967Z,1012.87
2022-08-01T06:48:19.647Z,1012.88
2022-08-01T06:49:19.022Z,1012.86
2022-08-01T06:50:19.630Z,1012.87
2022-08-01T06:51:19.288Z,1012.89
2022-08-01T06:52:18.944Z,1012.89
2022-08-01T06:53:19.588Z,1012.88
2022-08-01T06:54:18.909Z,1012.89
2022-08-01T06:55:19.580Z,1012.90
2022-08-01T06:56:18.882Z,1012.90
2022-08-01T06:57:18.919Z,1012.94
2022-08-01T06:58:18.875Z,1012.91
2022-08-01T06:59:18.863Z,1012.94
2022-08-01T07:00:18.860Z,1012.97
2022-08-01T07:01:18.941Z,1012.96
2022-08-01T07:02:19.032Z,1012.93
2022-08-01T07:03:19.485Z,1012.98
2022-08-01T07:04:18.822Z,1012.99
2022-08-01T07:05:19.461Z,1012.95
2022-08-01T07:06:18.774Z,1012.91
2022-08-01T07:07:18.772Z,1012.96
2022-08-01T07:08:18.744Z,1012.92
2022-08-01T07:09:18.774Z,1012.93
2022-08-01T07:10:19.571Z,1012.91
2022-08-01T07:11:19.411Z,1012.95
2022-08-01T07:12:18.712Z,1012.91
2022-08-01T07:13:20.125Z,1012.90
2022-08-01T07:14:21.155Z,1012.95
2022-08-01T07:15:19.345Z,1012.96
2022-08-01T07:16:19.355Z,1012.96
2022-08-01T07:17:19.337Z,1012.96
2022-08-01T07:18:19.336Z,1012.93
2022-08-01T07:19:19.478Z,1012.97
2022-08-01T07:20:19.321Z,1012.99
2022-08-01T07:21:40.055Z,1012.93
2022-08-01T07:22:23.217Z,1012.92
2022-08-01T07:23:19.280Z,1012.92
2022-08-01T07:24:21.013Z,1012.96
2022-08-01T07:25:19.249Z,1012.95
2022-08-01T07:26:19.263Z,1012.97
2022-08-01T07:27:24.369Z,1012.96
2022-08-01T07:28:19.560Z,1012.99
2022-08-01T07:29:19.213Z,1013.01
2022-08-01T07:30:19.200Z,1013.03
2022-08-01T07:31:19.190Z,1013.01
2022-08-01T07:32:19.189Z,1012.99
2022-08-01T07:33:19.257Z,1013.00
2022-08-01T07:34:19.160Z,1013.03
2022-08-01T07:35:19.431Z,1013.00
2022-08-01T07:36:19.150Z,1013.03
2022-08-01T07:37:18.452Z,1013.01
2022-08-01T07:38:21.365Z,1013.03
2022-08-01T07:39:19.119Z,1013.00
2022-08-01T07:40:19.095Z,1013.01
2022-08-01T07:41:19.086Z,1013.04
2022-08-01T07:42:18.403Z,1013.04
2022-08-01T07:43:19.337Z,1013.05
2022-08-01T07:44:19.042Z,1013.06
2022-08-01T07:45:18.354Z,1013.07
2022-08-01T07:46:19.029Z,1013.10
2022-08-01T07:47:19.024Z,1013.09
2022-08-01T07:48:19.298Z,1013.12
2022-08-01T07:49:19.052Z,1013.16
2022-08-01T07:50:20.309Z,1013.18
2022-08-01T07:51:18.305Z,1013.21
2022-08-01T07:52:20.814Z,1013.24
2022-08-01T07:53:18.287Z,1013.25
2022-08-01T07:54:19.237Z,1013.27
2022-08-01T07:55:18.256Z,1013.30
2022-08-01T07:56:18.908Z,1013.32
2022-08-01T07:57:18.250Z,1013.30
2022-08-01T07:58:18.236Z,1013.31
2022-08-01T07:59:26.156Z,1013.31
2022-08-01T08:00:20.642Z,1013.31
2022-08-01T08:01:19.091Z,1013.30
2022-08-01T08:02:18.297Z,1013.32
2022-08-01T08:03:18.851Z,1013.32
2022-08-01T08:04:18.835Z,1013.30
2022-08-01T08:05:57.689Z,1013.32
2022-08-01T08:06:21.141Z,1013.32
2022-08-01T08:07:18.811Z,1013.30
2022-08-01T08:08:19.571Z,1013.34
2022-08-01T08:09:19.047Z,1013.38
2022-08-01T08:10:18.791Z,1013.41
2022-08-01T08:11:18.774Z,1013.41
2022-08-01T08:12:18.743Z,1013.40
2022-08-01T08:13:19.078Z,1013.42
2022-08-01T08:14:19.496Z,1013.41
2022-08-01T08:15:18.074Z,1013.43
2022-08-01T08:16:18.704Z,1013.45
2022-08-01T08:17:18.694Z,1013.45
2022-08-01T08:18:18.769Z,1013.44
2022-08-01T08:19:18.328Z,1013.42
2022-08-01T08:20:17.994Z,1013.46
2022-08-01T08:21:17.984Z,1013.47
2022-08-01T08:22:18.978Z,1013.48
2022-08-01T08:23:26.498Z,1013.52
2022-08-01T08:24:20.388Z,1013.47
2022-08-01T08:25:20.336Z,1013.55
2022-08-01T08:26:17.947Z,1013.53
2022-08-01T08:27:19.211Z,1013.56
2022-08-01T08:28:18.578Z,1013.53
2022-08-01T08:29:19.840Z,1013.55
2022-08-01T08:30:19.319Z,1013.56
2022-08-01T08:31:25.695Z,1013.58
2022-08-01T08:32:18.879Z,1013.58
2022-08-01T08:33:17.850Z,1013.62
2022-08-01T08:34:18.516Z,1013.62
2022-08-01T08:35:40.147Z,1013.64
2022-08-01T08:36:19.762Z,1013.60
2022-08-01T08:37:18.472Z,1013.60
2022-08-01T08:38:17.825Z,1013.61
2022-08-01T08:39:19.679Z,1013.60
2022-08-01T08:40:17.785Z,1013.65
2022-08-01T08:41:21.375Z,1013.56
2022-08-01T08:42:18.426Z,1013.62
2022-08-01T08:43:17.734Z,1013.62
2022-08-01T08:44:17.939Z,1013.66
2022-08-01T08:45:17.715Z,1013.66
2022-08-01T08:46:17.723Z,1013.68
2022-08-01T08:47:21.177Z,1013.64
2022-08-01T08:48:17.687Z,1013.67
2022-08-01T08:49:17.794Z,1013.65
2022-08-01T08:50:18.337Z,1013.68
2022-08-01T08:51:17.682Z,1013.69
2022-08-01T08:52:18.579Z,1013.71
2022-08-01T08:53:19.025Z,1013.72
2022-08-01T08:54:17.638Z,1013.71
2022-08-01T08:55:18.288Z,1013.70
2022-08-01T08:56:17.590Z,1013.65
2022-08-01T08:57:17.654Z,1013.69
2022-08-01T08:58:18.248Z,1013.68
2022-08-01T08:59:18.321Z,1013.68
2022-08-01T09:00:17.582Z,1013.69
2022-08-01T09:01:17.578Z,1013.71
2022-08-01T09:02:19.238Z,1013.77
2022-08-01T09:03:18.245Z,1013.72
2022-08-01T09:04:18.195Z,1013.74
2022-08-01T09:05:19.626Z,1013.70
2022-08-01T09:06:17.564Z,1013.74
2022-08-01T09:07:17.511Z,1013.71
2022-08-01T09:08:18.141Z,1013.79
2022-08-01T09:09:17.472Z,1013.82
2022-08-01T09:10:18.165Z,1013.83
2022-08-01T09:11:22.943Z,1013.78
2022-08-01T09:12:19.106Z,1013.87
2022-08-01T09:13:18.103Z,1013.85
2022-08-01T09:14:17.403Z,1013.85
2022-08-01T09:15:17.404Z,1013.85
2022-08-01T09:16:17.425Z,1013.85
2022-08-01T09:17:18.036Z,1013.89
2022-08-01T09:18:18.035Z,1013.97
2022-08-01T09:19:39.543Z,1013.94
2022-08-01T09:20:19.276Z,1013.98
2022-08-01T09:21:17.998Z,1013.96
2022-08-01T09:22:17.316Z,1013.97
2022-08-01T09:23:17.992Z,1013.99
2022-08-01T09:24:17.298Z,1013.99
2022-08-01T09:25:19.829Z,1014.01
2022-08-01T09:26:19.192Z,1014.03
2022-08-01T09:27:17.938Z,1014.05
2022-08-01T09:28:17.257Z,1014.09
2022-08-01T09:29:17.280Z,1014.06
2022-08-01T09:30:23.265Z,1014.09
2022-08-01T09:31:17.896Z,1014.06
2022-08-01T09:32:17.907Z,1014.08
2022-08-01T09:33:21.537Z,1014.07
2022-08-01T09:34:19.749Z,1014.09
2022-08-01T09:35:17.849Z,1014.06
2022-08-01T09:36:17.541Z,1014.10
2022-08-01T09:37:17.833Z,1014.10
2022-08-01T09:38:18.156Z,1014.08
2022-08-01T09:39:17.132Z,1014.11
2022-08-01T09:40:17.124Z,1014.10
2022-08-01T09:41:17.873Z,1014.09
2022-08-01T09:42:17.127Z,1014.11
2022-08-01T09:43:17.764Z,1014.08
2022-08-01T09:44:17.767Z,1014.10
2022-08-01T09:45:23.346Z,1014.13
2022-08-01T09:46:18.084Z,1014.14
2022-08-01T09:47:18.486Z,1014.16
2022-08-01T09:48:18.078Z,1014.19
2022-08-01T09:49:17.782Z,1014.25
2022-08-01T09:50:17.738Z,1014.25
2022-08-01T09:51:22.261Z,1014.27
2022-08-01T09:52:18.136Z,1014.23
2022-08-01T09:53:24.479Z,1014.29
2022-08-01T09:54:18.020Z,1014.29
2022-08-01T09:55:16.978Z,1014.32
2022-08-01T09:56:16.948Z,1014.28
2022-08-01T09:57:17.619Z,1014.23
2022-08-01T09:58:17.993Z,1014.32
2022-08-01T09:59:17.601Z,1014.29
2022-08-01T10:00:35.728Z,1014.26
2022-08-01T10:01:17.889Z,1014.29
2022-08-01T10:02:16.920Z,1014.31
2022-08-01T10:03:16.971Z,1014.25
2022-08-01T10:04:17.407Z,1014.29
2022-08-01T10:05:21.215Z,1014.32
2022-08-01T10:06:17.522Z,1014.34
2022-08-01T10:07:17.514Z,1014.35
2022-08-01T10:08:23.149Z,1014.29
2022-08-01T10:09:18.508Z,1014.36
2022-08-01T10:10:17.507Z,1014.31
2022-08-01T10:11:16.793Z,1014.33
2022-08-01T10:12:16.815Z,1014.41
2022-08-01T10:13:16.798Z,1014.37
2022-08-01T10:14:18.084Z,1014.38
2022-08-01T10:15:18.020Z,1014.37
2022-08-01T10:16:16.776Z,1014.36
2022-08-01T10:17:18.379Z,1014.35
2022-08-01T10:18:26.228Z,1014.38
2022-08-01T10:19:19.157Z,1014.36
2022-08-01T10:20:29.032Z,1014.38
2022-08-01T10:21:40.724Z,1014.39
2022-08-01T10:22:17.766Z,1014.33
2022-08-01T10:23:16.660Z,1014.29
2022-08-01T10:24:18.843Z,1014.30
2022-08-01T10:25:16.649Z,1014.30
2022-08-01T10:26:19.577Z,1014.33
2022-08-01T10:27:16.882Z,1014.31
2022-08-01T10:28:23.671Z,1014.30
2022-08-01T10:29:24.358Z,1014.34
2022-08-01T10:30:23.353Z,1014.33
2022-08-01T10:31:18.013Z,1014.37
2022-08-01T10:32:16.582Z,1014.37
2022-08-01T10:33:20.013Z,1014.39
2022-08-01T10:34:19.037Z,1014.45
2022-08-01T10:35:17.530Z,1014.42
2022-08-01T10:36:17.533Z,1014.45
2022-08-01T10:37:16.502Z,1014.45
2022-08-01T10:38:17.183Z,1014.46
2022-08-01T10:39:20.045Z,1014.47
2022-08-01T10:40:29.903Z,1014.47
2022-08-01T10:41:17.453Z,1014.50
2022-08-01T10:42:16.534Z,1014.49
2022-08-01T10:43:21.353Z,1014.49
2022-08-01T10:44:18.198Z,1014.50
2022-08-01T10:45:16.415Z,1014.51
2022-08-01T10:46:17.496Z,1014.56
2022-08-01T10:47:22.555Z,1014.56
2022-08-01T10:48:20.675Z,1014.58
2022-08-01T10:49:16.428Z,1014.54
2022-08-01T10:50:21.914Z,1014.53
2022-08-01T10:51:18.813Z,1014.56
2022-08-01T10:52:17.037Z,1014.53
2022-08-01T10:53:23.821Z,1014.52
2022-08-01T10:54:17.518Z,1014.49
2022-08-01T10:55:16.334Z,1014.44
2022-08-01T10:56:16.795Z,1014.46
2022-08-01T10:57:16.980Z,1014.46
2022-08-01T10:58:16.335Z,1014.49
2022-08-01T10:59:16.283Z,1014.49
2022-08-01T11:00:17.942Z,1014.45
2022-08-01T11:01:16.319Z,1014.49
2022-08-01T11:02:16.931Z,1014.48
2022-08-01T11:03:16.220Z,1014.50
2022-08-01T11:04:18.314Z,1014.50
2022-08-01T11:05:16.192Z,1014.46
2022-08-01T11:06:16.205Z,1014.50
2022-08-01T11:07:16.191Z,1014.50
2022-08-01T11:08:16.246Z,1014.51
2022-08-01T11:09:16.227Z,1014.48
2022-08-01T11:10:16.175Z,1014.54
2022-08-01T11:11:16.143Z,1014.55
2022-08-01T11:12:22.977Z,1014.56
2022-08-01T11:13:17.173Z,1014.55
2022-08-01T11:14:22.627Z,1014.59
2022-08-01T11:15:18.063Z,1014.57
2022-08-01T11:16:20.330Z,1014.57
2022-08-01T11:17:18.776Z,1014.58
2022-08-01T11:18:17.776Z,1014.59
2022-08-01T11:19:17.725Z,1014.63
2022-08-01T11:20:16.053Z,1014.64
2022-08-01T11:21:59.214Z,1014.62
2022-08-01T11:22:17.029Z,1014.60
2022-08-01T11:23:16.031Z,1014.61
2022-08-01T11:24:15.999Z,1014.59
2022-08-01T11:25:16.058Z,1014.64
2022-08-01T11:26:17.403Z,1014.64
2022-08-01T11:27:16.031Z,1014.65
2022-08-01T11:28:24.858Z,1014.65
2022-08-01T11:29:20.954Z,1014.65
2022-08-01T11:30:17.006Z,1014.68
2022-08-01T11:31:15.963Z,1014.70
2022-08-01T11:32:15.924Z,1014.66
2022-08-01T11:33:16.602Z,1014.68
2022-08-01T11:34:17.833Z,1014.76
2022-08-01T11:35:17.107Z,1014.69
2022-08-01T11:36:16.001Z,1014.65
2022-08-01T11:37:15.920Z,1014.68
2022-08-01T11:38:15.854Z,1014.66
2022-08-01T11:39:15.869Z,1014.61
2022-08-01T11:40:15.891Z,1014.61
2022-08-01T11:41:16.497Z,1014.57
2022-08-01T11:42:16.496Z,1014.59
2022-08-01T11:43:16.479Z,1014.59
2022-08-01T11:44:16.515Z,1014.58
2022-08-01T11:45:18.552Z,1014.60
2022-08-01T11:46:15.766Z,1014.58
2022-08-01T11:47:16.496Z,1014.57
2022-08-01T11:48:17.668Z,1014.60
2022-08-01T11:49:15.819Z,1014.58
2022-08-01T11:50:15.740Z,1014.59
2022-08-01T11:51:22.696Z,1014.59
2022-08-01T11:52:16.947Z,1014.60
2022-08-01T11:53:15.716Z,1014.56
2022-08-01T11:54:15.709Z,1014.59
2022-08-01T11:55:16.840Z,1014.58
2022-08-01T11:56:15.692Z,1014.63
2022-08-01T11:57:16.333Z,1014.61
2022-08-01T11:58:22.581Z,1014.60
2022-08-01T11:59:18.551Z,1014.63
2022-08-01T12:00:17.487Z,1014.59
2022-08-01T12:01:16.292Z,1014.59
2022-08-01T12:02:15.628Z,1014.58
2022-08-01T12:03:21.538Z,1014.63
2022-08-01T12:04:19.044Z,1014.58
2022-08-01T12:05:15.909Z,1014.63